Time;durP1;ratioP1;P1;durP2;ratioP2;P2;SDS_P1;SDS_P2;PMS_P1;PMS_P2;Temp;Humidity;BMP_temperature;BMP_pressure;BME280_temperature;BME280_humidity;BME280_pressure;Samples;Min_cycle;Max_cycle;Signal;HPM_P1;HPM_P2
2022/08/19 00:02:04;;;;;;;13.00;4.30;;;;;;;;;;5034465;28;20112;-40
2022/08/19 00:04:35;;;;;;;8.55;4.03;;;;;;;;;;5052451;28;20029;-40
2022/08/19 00:07:04;;;;;;;7.53;4.57;;;;;;;;;;5052272;28;20104;-39
2022/08/19 00:09:30;;;;;;;7.07;4.30;;;;;;;;;;5052270;28;20100;-39
2022/08/19 00:11:57;;;;;;;8.60;4.65;;;;;;;;;;5052176;28;20104;-40
2022/08/19 00:14:24;;;;;;;7.20;4.80;;;;;;;;;;5052391;28;20029;-39
2022/08/19 00:16:53;;;;;;;8.25;4.65;;;;;;;;;;5052239;28;20523;-39
2022/08/19 00:19:20;;;;;;;9.00;4.43;;;;;;;;;;5052256;28;20025;-39
2022/08/19 00:21:46;;;;;;;7.32;4.78;;;;;;;;;;5052206;28;20024;-40
2022/08/19 00:24:13;;;;;;;10.70;5.15;;;;;;;;;;5052131;28;20622;-40
2022/08/19 00:26:40;;;;;;;7.82;5.20;;;;;;;;;;5052113;28;20036;-39
2022/08/19 00:29:08;;;;;;;11.68;4.90;;;;;;;;;;5052430;28;20075;-40
2022/08/19 00:31:33;;;;;;;5.50;4.90;;;;;;;;;;5052399;28;20453;-41
2022/08/19 00:33:59;;;;;;;8.02;5.25;;;;;;;;;;5052057;28;20059;-41
2022/08/19 00:36:24;;;;;;;6.50;4.68;;;;;;;;;;5052008;28;20120;-39
2022/08/19 00:38:51;;;;;;;9.38;4.93;;;;;;;;;;5052050;28;20036;-40
2022/08/19 00:41:20;;;;;;;7.88;4.35;;;;;;;;;;5051758;28;20037;-44
2022/08/19 00:44:14;;;;;;;8.93;5.30;;;;;;;;;;5051902;28;20025;-43
2022/08/19 00:46:43;;;;;;;8.30;4.97;;;;;;;;;;5034081;28;20025;-42
2022/08/19 00:49:17;;;;;;;9.65;4.85;;;;;;;;;;5051991;28;20056;-44
2022/08/19 00:51:46;;;;;;;8.52;4.95;;;;;;;;;;5051952;28;20396;-40
2022/08/19 00:54:12;;;;;;;5.50;4.83;;;;;;;;;;5051855;28;20469;-41
2022/08/19 00:56:38;;;;;;;6.55;5.03;;;;;;;;;;5052080;28;20029;-41
2022/08/19 00:59:08;;;;;;;12.27;4.90;;;;;;;;;;5051874;28;20032;-39
2022/08/19 01:01:39;;;;;;;8.10;5.90;;;;;;;;;;5052064;28;20108;-40
2022/08/19 01:04:05;;;;;;;8.40;5.40;;;;;;;;;;5051813;28;20469;-39
2022/08/19 01:06:32;;;;;;;11.23;5.45;;;;;;;;;;5052037;28;20029;-40
2022/08/19 01:08:59;;;;;;;6.78;5.10;;;;;;;;;;5052004;28;20048;-40
2022/08/19 01:11:26;;;;;;;7.55;5.28;;;;;;;;;;5054933;28;20029;-40
2022/08/19 01:13:53;;;;;;;11.10;5.32;;;;;;;;;;5055671;28;20025;-39
2022/08/19 01:16:21;;;;;;;10.73;5.80;;;;;;;;;;5055452;28;20067;-39
2022/08/19 01:18:47;;;;;;;8.75;5.28;;;;;;;;;;5037712;28;20032;-40
2022/08/19 01:21:32;;;;;;;8.93;5.57;;;;;;;;;;5055235;28;20468;-40
2022/08/19 01:23:58;;;;;;;8.70;5.82;;;;;;;;;;5055443;28;20033;-39
2022/08/19 01:26:26;;;;;;;6.25;5.13;;;;;;;;;;5055157;28;20078;-40
2022/08/19 01:28:55;;;;;;;6.68;5.28;;;;;;;;;;5055420;28;20064;-39
2022/08/19 01:31:24;;;;;;;10.30;5.25;;;;;;;;;;5055064;28;20082;-39
2022/08/19 01:33:52;;;;;;;11.40;6.07;;;;;;;;;;5055114;28;20067;-39
2022/08/19 01:36:26;;;;;;;8.98;5.85;;;;;;;;;;5054967;28;20024;-40
2022/08/19 01:38:53;;;;;;;5.70;5.20;;;;;;;;;;5054890;28;20083;-40
2022/08/19 01:41:18;;;;;;;11.95;5.13;;;;;;;;;;5054746;28;20405;-39
2022/08/19 01:43:45;;;;;;;7.10;5.32;;;;;;;;;;5054749;28;20032;-40
2022/08/19 01:46:10;;;;;;;8.82;5.68;;;;;;;;;;5054856;28;20029;-40
2022/08/19 01:48:40;;;;;;;9.45;5.53;;;;;;;;;;5054792;28;20548;-41
2022/08/19 01:51:06;;;;;;;7.15;5.50;;;;;;;;;;5054791;28;20029;-40
2022/08/19 01:53:33;;;;;;;9.00;5.50;;;;;;;;;;5054935;28;20158;-42
2022/08/19 01:55:58;;;;;;;8.35;5.78;;;;;;;;;;5054911;28;20104;-40
2022/08/19 01:58:30;;;;;;;7.80;6.07;;;;;;;;;;5054647;28;20583;-40
2022/08/19 02:00:56;;;;;;;8.70;5.80;;;;;;;;;;5054605;28;20025;-40
2022/08/19 02:03:22;;;;;;;7.13;5.25;;;;;;;;;;5054462;28;20274;-39
2022/08/19 02:05:54;;;;;;;9.00;4.60;;;;;;;;;;5054505;28;20025;-40
2022/08/19 02:08:19;;;;;;;6.43;4.97;;;;;;;;;;5054465;28;20021;-40
2022/08/19 02:10:45;;;;;;;10.60;4.03;;;;;;;;;;5054338;28;20033;-40
2022/08/19 02:13:13;;;;;;;7.75;5.75;;;;;;;;;;5054651;28;20029;-40
2022/08/19 02:15:39;;;;;;;9.45;6.00;;;;;;;;;;5054578;28;20429;-40
2022/08/19 02:18:05;;;;;;;7.70;5.25;;;;;;;;;;5054514;28;20107;-41
2022/08/19 02:20:30;;;;;;;11.88;5.95;;;;;;;;;;5054187;28;20017;-40
2022/08/19 02:22:56;;;;;;;8.15;5.43;;;;;;;;;;5053606;28;20075;-39
2022/08/19 02:25:21;;;;;;;9.65;6.00;;;;;;;;;;5054029;28;20472;-40
2022/08/19 02:27:47;;;;;;;7.88;5.88;;;;;;;;;;5054093;28;20075;-39
2022/08/19 02:30:15;;;;;;;11.77;6.03;;;;;;;;;;5054322;28;20024;-39
2022/08/19 02:32:41;;;;;;;10.73;5.00;;;;;;;;;;5054000;28;20417;-40
2022/08/19 02:35:07;;;;;;;8.25;5.80;;;;;;;;;;5053860;28;20063;-40
2022/08/19 02:40:17;;;;;;;11.10;5.75;;;;;;;;;;5054182;28;20388;-41
2022/08/19 02:42:45;;;;;;;8.95;5.65;;;;;;;;;;5053623;28;20129;-41
2022/08/19 02:45:11;;;;;;;10.68;5.75;;;;;;;;;;5053652;28;20542;-41
2022/08/19 02:47:37;;;;;;;8.38;6.03;;;;;;;;;;5053659;28;20021;-39
2022/08/19 02:50:03;;;;;;;9.15;5.88;;;;;;;;;;5053611;28;20104;-39
2022/08/19 02:52:29;;;;;;;12.80;6.40;;;;;;;;;;5053424;28;20465;-39
2022/08/19 02:54:57;;;;;;;11.15;6.32;;;;;;;;;;5053545;28;20044;-40
2022/08/19 02:57:23;;;;;;;8.27;5.88;;;;;;;;;;5035872;28;20040;-41
2022/08/19 02:59:49;;;;;;;14.02;6.40;;;;;;;;;;5053386;28;20549;-41
2022/08/19 03:02:15;;;;;;;9.68;6.65;;;;;;;;;;5053358;28;20044;-40
2022/08/19 03:04:41;;;;;;;7.20;5.50;;;;;;;;;;5053527;28;20114;-44
2022/08/19 03:07:08;;;;;;;10.63;6.00;;;;;;;;;;5053172;28;20032;-39
2022/08/19 03:09:37;;;;;;;13.07;4.80;;;;;;;;;;5053242;28;20101;-40
2022/08/19 03:12:05;;;;;;;12.57;5.45;;;;;;;;;;5053354;28;20025;-40
2022/08/19 03:14:33;;;;;;;11.77;6.20;;;;;;;;;;5053155;28;20021;-39
2022/08/19 03:17:00;;;;;;;9.20;6.43;;;;;;;;;;5053368;28;20025;-39
2022/08/19 03:19:25;;;;;;;9.63;6.05;;;;;;;;;;5053353;28;20430;-39
2022/08/19 03:21:51;;;;;;;11.95;6.30;;;;;;;;;;5053069;28;20032;-41
2022/08/19 03:24:18;;;;;;;10.98;6.47;;;;;;;;;;5052843;28;20021;-40
2022/08/19 03:26:52;;;;;;;12.95;6.57;;;;;;;;;;5053244;28;20080;-41
2022/08/19 03:29:19;;;;;;;8.48;6.50;;;;;;;;;;5052964;28;20120;-40
2022/08/19 03:31:45;;;;;;;9.95;6.60;;;;;;;;;;5053045;28;20400;-41
2022/08/19 03:34:17;;;;;;;10.13;6.57;;;;;;;;;;5051966;28;20124;-39
2022/08/19 03:36:44;;;;;;;9.88;6.28;;;;;;;;;;5052847;28;20033;-39
2022/08/19 03:39:10;;;;;;;9.43;6.15;;;;;;;;;;5052763;28;20037;-40
2022/08/19 03:41:39;;;;;;;8.20;6.28;;;;;;;;;;5052484;28;20080;-39
2022/08/19 03:44:04;;;;;;;9.70;5.80;;;;;;;;;;5052614;28;20036;-39
2022/08/19 03:46:33;;;;;;;8.48;6.40;;;;;;;;;;5052639;28;20033;-40
2022/08/19 03:49:02;;;;;;;9.95;6.68;;;;;;;;;;5034747;28;20025;-39
2022/08/19 03:51:37;;;;;;;9.43;6.57;;;;;;;;;;5052867;28;20120;-39
2022/08/19 03:54:06;;;;;;;8.75;6.35;;;;;;;;;;5052822;28;20052;-39
2022/08/19 03:56:33;;;;;;;12.48;6.75;;;;;;;;;;5052557;28;20032;-39
2022/08/19 03:58:59;;;;;;;11.80;5.57;;;;;;;;;;5052453;28;20049;-40
2022/08/19 04:01:27;;;;;;;10.88;5.47;;;;;;;;;;5052439;28;20106;-39
2022/08/19 04:03:53;;;;;;;9.55;6.30;;;;;;;;;;5052616;28;20032;-42
2022/08/19 04:06:25;;;;;;;5.97;5.30;;;;;;;;;;5052424;28;20070;-40
2022/08/19 04:08:53;;;;;;;10.77;5.95;;;;;;;;;;5052678;28;20036;-43
2022/08/19 04:11:21;;;;;;;13.65;6.45;;;;;;;;;;5052575;28;20475;-40
2022/08/19 04:13:48;;;;;;;8.90;6.50;;;;;;;;;;5052251;28;20025;-39
2022/08/19 04:16:13;;;;;;;14.18;7.07;;;;;;;;;;5052166;28;20481;-40
2022/08/19 04:18:40;;;;;;;12.43;7.40;;;;;;;;;;5034502;28;20101;-42
2022/08/19 04:21:07;;;;;;;9.82;7.28;;;;;;;;;;5052156;28;20603;-39
2022/08/19 04:23:35;;;;;;;13.38;7.40;;;;;;;;;;5052003;28;20423;-41
2022/08/19 04:26:02;;;;;;;9.43;6.75;;;;;;;;;;5052042;28;20025;-40
2022/08/19 04:28:28;;;;;;;13.20;6.75;;;;;;;;;;5052122;28;20033;-42
2022/08/19 04:30:54;;;;;;;10.88;6.78;;;;;;;;;;5052354;28;20083;-40
2022/08/19 04:33:23;;;;;;;11.95;6.63;;;;;;;;;;5052067;28;20044;-42
2022/08/19 04:35:51;;;;;;;14.13;6.28;;;;;;;;;;5052368;28;20021;-40
2022/08/19 04:38:24;;;;;;;9.00;6.32;;;;;;;;;;5052350;28;20132;-41
2022/08/19 04:43:38;;;;;;;15.38;7.47;;;;;;;;;;5052045;28;20051;-40
2022/08/19 04:46:12;;;;;;;10.57;6.45;;;;;;;;;;5054849;28;20458;-39
2022/08/19 04:48:38;;;;;;;9.60;6.22;;;;;;;;;;5055923;28;20111;-40
2022/08/19 04:51:09;;;;;;;10.82;5.90;;;;;;;;;;5055909;28;20033;-43
2022/08/19 04:53:37;;;;;;;7.18;6.40;;;;;;;;;;5056038;28;20432;-40
2022/08/19 04:56:22;;;;;;;8.00;6.50;;;;;;;;;;5038394;28;20029;-40
2022/08/19 04:58:50;;;;;;;11.20;6.60;;;;;;;;;;5055699;28;20027;-44
2022/08/19 05:01:21;;;;;;;8.13;6.65;;;;;;;;;;5055762;28;20104;-40
2022/08/19 05:03:47;;;;;;;12.32;6.68;;;;;;;;;;5055598;28;20046;-40
2022/08/19 05:06:14;;;;;;;6.97;5.32;;;;;;;;;;5055583;28;20025;-40
2022/08/19 05:08:42;;;;;;;8.38;5.53;;;;;;;;;;5055578;28;20104;-39
2022/08/19 05:11:30;;;;;;;6.43;5.03;;;;;;;;;;5055391;28;20487;-39
2022/08/19 05:13:56;;;;;;;9.63;6.20;;;;;;;;;;5055305;28;20033;-40
2022/08/19 05:16:23;;;;;;;7.50;5.68;;;;;;;;;;5055424;28;20395;-40
2022/08/19 05:24:20;;;;;;;8.00;6.53;;;;;;;;;;5055426;28;20059;-41
2022/08/19 05:26:48;;;;;;;7.95;5.65;;;;;;;;;;5055142;28;20036;-41
2022/08/19 05:29:16;;;;;;;8.35;5.07;;;;;;;;;;5055456;28;20546;-41
2022/08/19 05:31:43;;;;;;;7.60;5.68;;;;;;;;;;5055030;28;20029;-40
2022/08/19 05:34:09;;;;;;;7.35;5.78;;;;;;;;;;5055056;28;20021;-40
2022/08/19 05:36:39;;;;;;;5.47;4.72;;;;;;;;;;5054321;28;20404;-42
2022/08/19 05:39:10;;;;;;;6.80;5.47;;;;;;;;;;5053917;28;20480;-41
2022/08/19 05:41:42;;;;;;;9.52;4.75;;;;;;;;;;5054282;28;20561;-42
2022/08/19 05:44:09;;;;;;;11.02;5.60;;;;;;;;;;5054495;28;20044;-40
2022/08/19 05:46:37;;;;;;;7.32;5.70;;;;;;;;;;5053709;28;20091;-44
2022/08/19 05:49:07;;;;;;;6.43;4.93;;;;;;;;;;5054353;28;20017;-41
2022/08/19 05:51:34;;;;;;;6.13;5.32;;;;;;;;;;5054893;28;20033;-41
2022/08/19 05:54:04;;;;;;;12.38;5.70;;;;;;;;;;5054660;28;20083;-43
2022/08/19 05:56:36;;;;;;;7.20;3.92;;;;;;;;;;5053597;28;20108;-41
2022/08/19 05:59:02;;;;;;;6.20;4.85;;;;;;;;;;5055004;28;20029;-41
2022/08/19 06:01:28;;;;;;;10.27;4.70;;;;;;;;;;5054473;28;20453;-41
2022/08/19 06:03:53;;;;;;;6.03;4.88;;;;;;;;;;5054522;28;20059;-42
2022/08/19 06:06:19;;;;;;;5.03;4.43;;;;;;;;;;5054460;28;20075;-40
2022/08/19 06:08:49;;;;;;;7.03;3.45;;;;;;;;;;5054418;28;20025;-41
2022/08/19 06:11:21;;;;;;;8.85;5.20;;;;;;;;;;5054444;28;20353;-40
2022/08/19 06:13:50;;;;;;;9.02;3.75;;;;;;;;;;5054325;28;20017;-40
2022/08/19 06:16:20;;;;;;;6.33;3.60;;;;;;;;;;5054277;28;20420;-41
2022/08/19 06:18:45;;;;;;;;;;;;;;;;;;5054673;28;20266;-41
2022/08/19 06:21:11;;;;;;;10.73;4.47;;;;;;;;;;5054139;28;19923;-44
2022/08/19 06:23:36;;;;;;;5.95;3.90;;;;;;;;;;5054636;28;20029;-40
2022/08/19 06:26:02;;;;;;;7.72;4.90;;;;;;;;;;5054427;28;20503;-43
2022/08/19 06:28:28;;;;;;;5.70;4.07;;;;;;;;;;5054073;28;20025;-42
2022/08/19 06:30:54;;;;;;;6.53;4.38;;;;;;;;;;5053706;28;20025;-44
2022/08/19 06:33:20;;;;;;;11.63;5.47;;;;;;;;;;5051849;28;20166;-42
2022/08/19 06:35:45;;;;;;;7.78;4.35;;;;;;;;;;5053610;28;20112;-42
2022/08/19 06:38:11;;;;;;;6.15;5.10;;;;;;;;;;5053879;28;20477;-43
2022/08/19 06:40:37;;;;;;;6.15;4.10;;;;;;;;;;5036219;28;20052;-42
2022/08/19 06:43:03;;;;;;;10.40;4.10;;;;;;;;;;5053447;28;20041;-41
2022/08/19 06:45:30;;;;;;;7.38;5.10;;;;;;;;;;5053518;28;20045;-42
2022/08/19 06:47:55;;;;;;;9.82;5.35;;;;;;;;;;5051669;28;20378;-40
2022/08/19 06:50:24;;;;;;;9.65;5.47;;;;;;;;;;5052642;28;20100;-38
2022/08/19 06:52:50;;;;;;;7.93;4.97;;;;;;;;;;5051435;28;20055;-43
2022/08/19 06:55:15;;;;;;;9.52;4.70;;;;;;;;;;5052722;28;20029;-38
2022/08/19 06:57:42;;;;;;;8.90;5.35;;;;;;;;;;5053464;28;20031;-41
2022/08/19 07:00:13;;;;;;;6.53;4.72;;;;;;;;;;5052555;28;20051;-42
2022/08/19 07:02:39;;;;;;;5.35;3.65;;;;;;;;;;5053337;28;20108;-41
2022/08/19 07:05:05;;;;;;;5.50;4.47;;;;;;;;;;5053766;28;20116;-40
2022/08/19 07:07:31;;;;;;;6.82;4.18;;;;;;;;;;5052997;28;20025;-40
2022/08/19 07:09:56;;;;;;;7.22;4.75;;;;;;;;;;5053207;28;20016;-42
2022/08/19 07:12:22;;;;;;;8.88;4.50;;;;;;;;;;5053269;28;20385;-47
2022/08/19 07:14:49;;;;;;;5.70;3.33;;;;;;;;;;5048051;28;20033;-43
2022/08/19 07:17:14;;;;;;;7.80;3.42;;;;;;;;;;5050449;28;20028;-43
2022/08/19 07:19:42;;;;;;;5.97;4.05;;;;;;;;;;5051370;28;20032;-43
2022/08/19 07:22:09;;;;;;;7.10;3.88;;;;;;;;;;5051504;28;20416;-40
2022/08/19 07:24:35;;;;;;;4.30;3.90;;;;;;;;;;5051285;28;20029;-43
2022/08/19 07:27:03;;;;;;;7.53;4.38;;;;;;;;;;5051410;28;20445;-41
2022/08/19 07:29:32;;;;;;;3.97;3.67;;;;;;;;;;5051635;28;20033;-41
2022/08/19 07:31:59;;;;;;;8.90;3.80;;;;;;;;;;5051230;28;20041;-43
2022/08/19 07:34:27;;;;;;;9.02;4.07;;;;;;;;;;5051298;28;20060;-41
2022/08/19 07:36:54;;;;;;;6.40;3.63;;;;;;;;;;5051040;28;20405;-41
2022/08/19 07:39:24;;;;;;;7.95;3.70;;;;;;;;;;5051433;28;20048;-40
2022/08/19 07:41:52;;;;;;;14.35;4.20;;;;;;;;;;5051074;28;20491;-42
2022/08/19 07:44:20;;;;;;;6.00;3.53;;;;;;;;;;5032809;28;20148;-42
2022/08/19 07:46:50;;;;;;;8.60;4.30;;;;;;;;;;5051093;28;20381;-41
2022/08/19 07:49:19;;;;;;;11.65;3.33;;;;;;;;;;5051353;28;20107;-43
2022/08/19 07:51:51;;;;;;;4.35;3.53;;;;;;;;;;5051212;28;20082;-42
2022/08/19 07:54:19;;;;;;;9.15;3.20;;;;;;;;;;5051341;28;20033;-41
2022/08/19 07:56:44;;;;;;;6.93;3.92;;;;;;;;;;5051118;28;20128;-41
2022/08/19 07:59:10;;;;;;;6.93;3.15;;;;;;;;;;5032974;28;20471;-41
2022/08/19 08:01:36;;;;;;;8.50;3.85;;;;;;;;;;5050899;28;20029;-46
2022/08/19 08:09:37;;;;;;;4.68;4.13;;;;;;;;;;5051010;28;20044;-44
2022/08/19 08:12:09;;;;;;;3.28;2.67;;;;;;;;;;5050556;28;20477;-43
2022/08/19 08:14:56;;;;;;;6.43;3.15;;;;;;;;;;5050959;28;20059;-40
2022/08/19 08:17:25;;;;;;;5.32;2.88;;;;;;;;;;5050873;28;20021;-40
2022/08/19 08:19:50;;;;;;;15.75;3.20;;;;;;;;;;5050022;28;20021;-43
2022/08/19 08:25:12;;;;;;;6.03;2.88;;;;;;;;;;5050554;28;20562;-42
2022/08/19 08:27:40;;;;;;;9.57;3.38;;;;;;;;;;5050690;28;20058;-44
2022/08/19 08:30:09;;;;;;;6.45;3.03;;;;;;;;;;5050792;28;20096;-43
2022/08/19 08:32:36;;;;;;;7.88;3.40;;;;;;;;;;5050563;28;20159;-40
2022/08/19 08:35:03;;;;;;;10.05;3.47;;;;;;;;;;5050643;28;20040;-44
2022/08/19 08:37:30;;;;;;;7.32;3.45;;;;;;;;;;5050514;28;20032;-42
2022/08/19 08:39:55;;;;;;;14.82;2.97;;;;;;;;;;5050689;28;20369;-40
2022/08/19 08:42:27;;;;;;;9.52;3.35;;;;;;;;;;5050199;28;20057;-42
2022/08/19 08:45:05;;;;;;;8.40;2.55;;;;;;;;;;5050357;28;20552;-41
2022/08/19 08:47:36;;;;;;;7.78;2.92;;;;;;;;;;5049809;28;20032;-42
2022/08/19 08:50:11;;;;;;;6.82;3.60;;;;;;;;;;5050333;28;20025;-47
2022/08/19 08:52:42;;;;;;;4.97;2.47;;;;;;;;;;5050593;28;20096;-41
2022/08/19 08:55:14;;;;;;;5.25;2.50;;;;;;;;;;5050567;28;20037;-40
2022/08/19 08:57:48;;;;;;;3.83;2.33;;;;;;;;;;5050224;28;20025;-43
2022/08/19 09:00:36;;;;;;;6.40;3.20;;;;;;;;;;5050415;28;20566;-42
2022/08/19 09:03:05;;;;;;;12.30;3.10;;;;;;;;;;5050123;28;20519;-41
2022/08/19 09:05:57;;;;;;;5.13;2.83;;;;;;;;;;5050064;28;20127;-43
2022/08/19 09:08:48;;;;;;;7.15;2.78;;;;;;;;;;5038834;28;20519;-39
2022/08/19 09:11:29;;;;;;;3.03;2.35;;;;;;;;;;5050418;28;20033;-41
2022/08/19 09:14:10;;;;;;;10.15;2.33;;;;;;;;;;5050083;28;20029;-44
2022/08/19 09:16:36;;;;;;;10.32;2.95;;;;;;;;;;5050323;28;20037;-41
2022/08/19 09:19:05;;;;;;;13.68;3.05;;;;;;;;;;5049952;28;20089;-44
2022/08/19 09:21:30;;;;;;;5.00;3.10;;;;;;;;;;5050191;28;20040;-43
2022/08/19 09:23:57;;;;;;;6.60;3.13;;;;;;;;;;5032219;28;20040;-42
2022/08/19 09:26:24;;;;;;;5.93;3.10;;;;;;;;;;5049988;28;20029;-43
2022/08/19 09:28:52;;;;;;;4.88;2.83;;;;;;;;;;5049878;28;20067;-41
2022/08/19 09:31:26;;;;;;;5.25;2.97;;;;;;;;;;5050006;28;20525;-42
2022/08/19 09:33:52;;;;;;;6.82;3.38;;;;;;;;;;5053843;28;20051;-42
2022/08/19 09:36:22;;;;;;;4.85;2.70;;;;;;;;;;5035468;28;20501;-42
2022/08/19 09:38:48;;;;;;;8.18;3.28;;;;;;;;;;5053469;28;20029;-43
2022/08/19 09:41:17;;;;;;;8.80;2.67;;;;;;;;;;5053105;28;20358;-46
2022/08/19 09:43:46;;;;;;;10.70;2.75;;;;;;;;;;5053281;28;20488;-41
2022/08/19 09:46:11;;;;;;;8.98;2.90;;;;;;;;;;5053333;28;20060;-45
2022/08/19 09:48:41;;;;;;;4.60;2.25;;;;;;;;;;5053277;28;20068;-47
2022/08/19 09:51:10;;;;;;;2.92;2.40;;;;;;;;;;5053172;28;20030;-42
2022/08/19 09:53:36;;;;;;;10.50;2.88;;;;;;;;;;5053430;28;20095;-45
2022/08/19 09:56:02;;;;;;;8.75;3.03;;;;;;;;;;5053081;28;20465;-41
2022/08/19 09:58:29;;;;;;;2.97;2.50;;;;;;;;;;5053275;28;20025;-44
2022/08/19 10:00:56;;;;;;;8.07;3.20;;;;;;;;;;5053133;28;20480;-40
2022/08/19 10:03:22;;;;;;;6.68;2.88;;;;;;;;;;5052901;28;20585;-44
2022/08/19 10:05:48;;;;;;;4.57;2.25;;;;;;;;;;5053072;28;20121;-42
2022/08/19 10:08:15;;;;;;;10.18;3.55;;;;;;;;;;5052937;28;20104;-42
2022/08/19 10:10:44;;;;;;;9.38;3.28;;;;;;;;;;5053222;28;20033;-42
2022/08/19 10:13:10;;;;;;;7.63;3.30;;;;;;;;;;5052678;28;20546;-44
2022/08/19 10:15:38;;;;;;;7.55;3.10;;;;;;;;;;5052780;28;20033;-42
2022/08/19 10:18:04;;;;;;;14.43;3.35;;;;;;;;;;5052701;28;20063;-45
2022/08/19 10:20:30;;;;;;;9.57;2.95;;;;;;;;;;5034767;28;20064;-45
2022/08/19 10:22:55;;;;;;;7.60;2.75;;;;;;;;;;5052808;28;20028;-41
2022/08/19 10:25:21;;;;;;;10.63;2.65;;;;;;;;;;5034482;28;20500;-47
2022/08/19 10:27:46;;;;;;;9.75;2.55;;;;;;;;;;5052476;28;20028;-42
2022/08/19 10:30:13;;;;;;;7.55;2.35;;;;;;;;;;5052436;28;20079;-42
2022/08/19 10:32:38;;;;;;;8.80;3.33;;;;;;;;;;5052447;28;20028;-46
2022/08/19 10:35:08;;;;;;;5.13;2.20;;;;;;;;;;5052607;28;20031;-43
2022/08/19 10:37:36;;;;;;;6.43;2.60;;;;;;;;;;5052425;28;20092;-42
2022/08/19 10:40:04;;;;;;;3.22;2.65;;;;;;;;;;5052381;28;20049;-40
2022/08/19 10:42:31;;;;;;;12.25;3.00;;;;;;;;;;5051434;28;20041;-41
2022/08/19 10:44:57;;;;;;;5.00;3.00;;;;;;;;;;5052340;28;20047;-43
2022/08/19 10:47:23;;;;;;;8.32;2.40;;;;;;;;;;5052020;28;20044;-44
2022/08/19 10:52:33;;;;;;;11.50;3.72;;;;;;;;;;5052282;28;20108;-41
2022/08/19 10:57:48;;;;;;;7.78;2.95;;;;;;;;;;5052007;28;20032;-43
2022/08/19 11:00:14;;;;;;;6.68;3.13;;;;;;;;;;5051951;28;20086;-44
2022/08/19 11:02:41;;;;;;;15.25;2.33;;;;;;;;;;5052076;28;20025;-42
2022/08/19 11:05:09;;;;;;;8.70;2.42;;;;;;;;;;5051796;28;20064;-42
2022/08/19 11:07:35;;;;;;;7.10;2.38;;;;;;;;;;5051703;28;20029;-41
2022/08/19 11:10:02;;;;;;;7.32;2.65;;;;;;;;;;5051977;28;20031;-40
2022/08/19 11:12:28;;;;;;;10.85;3.60;;;;;;;;;;5051757;28;20061;-40
2022/08/19 11:14:54;;;;;;;7.00;2.75;;;;;;;;;;5051795;28;20432;-40
2022/08/19 11:17:19;;;;;;;15.30;3.25;;;;;;;;;;5051626;28;20409;-40
2022/08/19 11:19:48;;;;;;;3.63;2.60;;;;;;;;;;5051455;28;20041;-43
2022/08/19 11:22:13;;;;;;;9.13;3.05;;;;;;;;;;5051864;28;20029;-43
2022/08/19 11:24:39;;;;;;;7.15;3.05;;;;;;;;;;5051310;28;20491;-44
2022/08/19 11:27:08;;;;;;;7.88;3.65;;;;;;;;;;5051541;28;20120;-45
2022/08/19 11:29:37;;;;;;;7.72;3.03;;;;;;;;;;5051298;28;20032;-48
2022/08/19 11:32:05;;;;;;;15.07;3.67;;;;;;;;;;5052083;28;20033;-43
2022/08/19 11:34:30;;;;;;;5.33;2.77;;;;;;;;;;5033350;28;20033;-41
2022/08/19 11:36:59;;;;;;;10.27;3.13;;;;;;;;;;5051271;28;20029;-42
2022/08/19 11:39:27;;;;;;;6.93;2.75;;;;;;;;;;5033449;28;20397;-43
2022/08/19 11:41:53;;;;;;;12.95;3.78;;;;;;;;;;5051109;28;20048;-41
2022/08/19 11:44:19;;;;;;;11.75;3.28;;;;;;;;;;5051078;28;20028;-41
2022/08/19 11:46:46;;;;;;;8.05;2.88;;;;;;;;;;5033394;28;20112;-47
2022/08/19 11:49:13;;;;;;;8.65;3.22;;;;;;;;;;5051309;28;20084;-40
2022/08/19 11:51:39;;;;;;;10.35;3.42;;;;;;;;;;5050889;28;20392;-44
2022/08/19 11:54:05;;;;;;;8.23;2.90;;;;;;;;;;5050557;28;20095;-40
2022/08/19 11:56:31;;;;;;;6.55;3.20;;;;;;;;;;5050516;28;20127;-44
2022/08/19 11:58:57;;;;;;;9.25;2.92;;;;;;;;;;5050790;28;20053;-41
2022/08/19 12:01:24;;;;;;;11.20;2.30;;;;;;;;;;5050297;28;20114;-42
2022/08/19 12:03:52;;;;;;;6.65;3.30;;;;;;;;;;5050559;28;20021;-42
2022/08/19 12:06:25;;;;;;;6.38;3.50;;;;;;;;;;5050680;28;20056;-42
2022/08/19 12:08:51;;;;;;;9.68;3.35;;;;;;;;;;5050859;28;20457;-41
2022/08/19 12:11:17;;;;;;;11.23;2.97;;;;;;;;;;5050691;28;20025;-41
2022/08/19 12:13:45;;;;;;;12.02;3.13;;;;;;;;;;5050479;28;20040;-40
2022/08/19 12:16:20;;;;;;;8.07;3.20;;;;;;;;;;5050971;28;20098;-42
2022/08/19 12:18:46;;;;;;;9.45;3.40;;;;;;;;;;5033060;28;20183;-44
2022/08/19 12:21:22;;;;;;;18.83;4.53;;;;;;;;;;5050395;28;20029;-41
2022/08/19 12:23:50;;;;;;;10.00;3.40;;;;;;;;;;5032980;28;20036;-41
2022/08/19 12:26:17;;;;;;;10.52;3.45;;;;;;;;;;5050560;28;20018;-43
2022/08/19 12:28:43;;;;;;;10.57;3.38;;;;;;;;;;5050313;28;20029;-42
2022/08/19 12:31:11;;;;;;;8.93;3.42;;;;;;;;;;5032871;28;20476;-41
2022/08/19 12:33:40;;;;;;;9.32;3.58;;;;;;;;;;5032488;28;20036;-42
2022/08/19 12:36:10;;;;;;;10.95;3.33;;;;;;;;;;5050773;28;20075;-42
2022/08/19 12:38:36;;;;;;;9.20;3.30;;;;;;;;;;5050433;28;20406;-41
2022/08/19 12:41:05;;;;;;;14.27;3.20;;;;;;;;;;5050263;28;20090;-42
2022/08/19 12:43:31;;;;;;;;;;;;;;;;;;5050657;28;20049;-43
2022/08/19 12:45:57;;;;;;;13.88;4.32;;;;;;;;;;5050097;28;20007;-44
2022/08/19 12:48:23;;;;;;;8.90;3.03;;;;;;;;;;5032594;28;20064;-42
2022/08/19 12:50:49;;;;;;;6.50;3.22;;;;;;;;;;5050232;28;20492;-44
2022/08/19 12:53:15;;;;;;;8.15;3.35;;;;;;;;;;5050444;28;20036;-45
2022/08/19 12:55:42;;;;;;;7.15;3.50;;;;;;;;;;5050068;28;20481;-41
2022/08/19 12:58:09;;;;;;;11.10;3.28;;;;;;;;;;5050531;28;20428;-41
2022/08/19 13:00:34;;;;;;;11.48;3.10;;;;;;;;;;5050419;28;20411;-40
2022/08/19 13:03:00;;;;;;;8.82;3.15;;;;;;;;;;5050091;28;20040;-41
2022/08/19 13:05:30;;;;;;;11.27;3.60;;;;;;;;;;5050221;28;20029;-42
2022/08/19 13:07:59;;;;;;;10.43;3.60;;;;;;;;;;5035766;28;20661;-41
2022/08/19 13:10:31;;;;;;;9.63;3.40;;;;;;;;;;5036317;28;20017;-41
2022/08/19 13:12:59;;;;;;;18.80;3.85;;;;;;;;;;5053899;28;20021;-42
2022/08/19 13:15:25;;;;;;;185.90;11.60;;;;;;;;;;5053842;28;20539;-40
2022/08/19 13:17:53;;;;;;;53.97;6.60;;;;;;;;;;5035851;28;20025;-42
2022/08/19 13:20:20;;;;;;;29.48;5.40;;;;;;;;;;5053932;28;20500;-44
2022/08/19 13:22:48;;;;;;;60.15;5.88;;;;;;;;;;5053980;28;20067;-43
2022/08/19 13:25:17;;;;;;;40.08;4.65;;;;;;;;;;5053842;28;20380;-41
2022/08/19 13:27:42;;;;;;;;;;;;;;;;;;5054147;28;20064;-41
2022/08/19 13:33:10;;;;;;;85.68;7.80;;;;;;;;;;5053810;28;20040;-46
2022/08/19 13:35:57;;;;;;;44.17;4.88;;;;;;;;;;5053831;28;20029;-41
2022/08/19 13:38:25;;;;;;;23.15;4.20;;;;;;;;;;5052980;28;20493;-40
2022/08/19 13:40:55;;;;;;;37.85;4.55;;;;;;;;;;5053394;28;20032;-40
2022/08/19 13:43:23;;;;;;;34.55;4.80;;;;;;;;;;5053353;28;20088;-40
2022/08/19 13:45:55;;;;;;;40.78;4.93;;;;;;;;;;5053079;28;20571;-41
2022/08/19 13:48:21;;;;;;;51.03;5.53;;;;;;;;;;5053349;28;20404;-41
2022/08/19 13:50:47;;;;;;;38.20;4.40;;;;;;;;;;5053361;28;20029;-40
2022/08/19 13:53:15;;;;;;;28.08;3.95;;;;;;;;;;5053162;28;20021;-42
2022/08/19 13:55:44;;;;;;;28.33;4.15;;;;;;;;;;5035129;28;20067;-40
2022/08/19 13:58:11;;;;;;;;;;;;;;;;;;5053577;28;20101;-40
2022/08/19 14:00:40;;;;;;;47.22;4.93;;;;;;;;;;5052823;28;20349;-43
2022/08/19 14:03:05;;;;;;;61.72;5.32;;;;;;;;;;5035215;28;20067;-42
2022/08/19 14:05:32;;;;;;;43.17;4.25;;;;;;;;;;5053088;28;20068;-44
2022/08/19 14:07:58;;;;;;;69.05;5.60;;;;;;;;;;5052774;28;20528;-43
2022/08/19 14:10:26;;;;;;;42.47;4.50;;;;;;;;;;5052891;28;20037;-42
2022/08/19 14:12:57;;;;;;;64.80;6.13;;;;;;;;;;5053071;28;20024;-41
2022/08/19 14:15:24;;;;;;;59.95;5.97;;;;;;;;;;5052762;28;20055;-41
2022/08/19 14:17:50;;;;;;;51.08;5.18;;;;;;;;;;5051834;28;20527;-44
2022/08/19 14:20:16;;;;;;;22.52;2.72;;;;;;;;;;5052662;28;20033;-47
2022/08/19 14:22:42;;;;;;;52.88;4.30;;;;;;;;;;5052591;28;20029;-41
2022/08/19 14:25:12;;;;;;;23.10;3.33;;;;;;;;;;5052467;28;20389;-43
2022/08/19 14:27:40;;;;;;;34.15;4.15;;;;;;;;;;5052569;28;20075;-41
2022/08/19 14:30:08;;;;;;;13.63;3.20;;;;;;;;;;5052575;28;20025;-44
2022/08/19 14:32:34;;;;;;;20.17;2.78;;;;;;;;;;5052417;28;20098;-40
2022/08/19 14:35:00;;;;;;;14.93;2.72;;;;;;;;;;5052588;28;20384;-41
2022/08/19 14:37:26;;;;;;;18.30;3.00;;;;;;;;;;5052436;28;20468;-42
2022/08/19 14:39:52;;;;;;;20.83;2.88;;;;;;;;;;5034640;28;20044;-40
2022/08/19 14:42:19;;;;;;;19.15;3.05;;;;;;;;;;5052042;28;20116;-43
2022/08/19 14:44:45;;;;;;;15.45;3.70;;;;;;;;;;5052350;28;20029;-42
2022/08/19 14:47:11;;;;;;;12.23;2.80;;;;;;;;;;5052300;28;20520;-45
2022/08/19 14:49:36;;;;;;;22.10;3.30;;;;;;;;;;5051943;28;20112;-41
2022/08/19 14:52:03;;;;;;;56.67;5.25;;;;;;;;;;5052216;28;20052;-42
2022/08/19 14:54:29;;;;;;;19.40;3.35;;;;;;;;;;5052253;28;20036;-42
2022/08/19 14:56:54;;;;;;;24.10;4.10;;;;;;;;;;5051918;28;20075;-43
2022/08/19 14:59:20;;;;;;;21.42;4.93;;;;;;;;;;5051992;28;20029;-42
2022/08/19 15:01:45;;;;;;;23.58;5.05;;;;;;;;;;5051864;28;20052;-45
2022/08/19 15:04:11;;;;;;;27.88;3.20;;;;;;;;;;5051940;28;20032;-49
2022/08/19 15:06:37;;;;;;;24.98;4.40;;;;;;;;;;5051688;28;20051;-44
2022/08/19 15:09:03;;;;;;;22.70;4.30;;;;;;;;;;5052152;28;20032;-43
2022/08/19 15:11:32;;;;;;;19.23;3.35;;;;;;;;;;5051755;28;20043;-45